Time;durP1;ratioP1;P1;durP2;ratioP2;P2;SDS_P1;SDS_P2;PMS_P1;PMS_P2;Temp;Humidity;BMP_temperature;BMP_pressure;BME280_temperature;BME280_humidity;BME280_pressure;Samples;Min_cycle;Max_cycle;Signal;HPM_P1;HPM_P2
2021/10/12 00:01:35;;;;;;;33.90;24.20;;;8.80;91.90;;;7.45;94.90;98592.66;5027513;28;20450;-68
2021/10/12 00:04:02;;;;;;;31.50;22.03;;;8.80;92.20;;;7.51;94.50;98598.13;5029294;28;21065;-67
2021/10/12 00:06:29;;;;;;;34.20;22.77;;;8.80;92.40;;;7.65;93.93;98590.28;5029251;28;20450;-67
2021/10/12 00:08:59;;;;;;;34.60;24.20;;;8.80;92.30;;;7.58;94.25;98589.31;5045442;28;20462;-67
2021/10/12 00:11:26;;;;;;;30.60;21.50;;;8.80;92.40;;;7.68;93.96;98583.72;5028594;28;20546;-67
2021/10/12 00:13:53;;;;;;;27.00;22.47;;;8.80;92.20;;;7.67;94.26;98585.56;5029987;28;21051;-67
2021/10/12 00:16:20;;;;;;;31.53;23.80;;;8.80;92.40;;;7.61;94.03;98589.81;5030121;28;20466;-67
2021/10/12 00:18:47;;;;;;;30.03;23.40;;;8.90;92.10;;;7.46;94.49;98580.88;5030783;28;20564;-67
2021/10/12 00:21:14;;;;;;;31.93;23.70;;;8.80;91.70;;;7.53;95.13;98586.34;5044966;28;20542;-67
2021/10/12 00:23:41;;;;;;;31.10;23.27;;;8.80;92.60;;;7.68;94.50;98583.72;5030083;28;20465;-67
2021/10/12 00:26:09;;;;;;;28.00;23.00;;;8.80;92.60;;;7.65;93.90;98584.91;5029033;28;20488;-68
2021/10/12 00:28:36;;;;;;;35.03;23.30;;;8.90;91.90;;;7.80;93.52;98593.84;5031647;28;20812;-67
2021/10/12 00:31:04;;;;;;;32.50;23.47;;;8.90;91.90;;;7.77;93.27;98587.97;5026162;28;20466;-68
2021/10/12 00:33:32;;;;;;;31.53;22.97;;;9.00;91.40;;;7.78;93.33;98576.19;5028191;28;21007;-67
2021/10/12 00:35:59;;;;;;;27.43;21.93;;;9.00;91.70;;;7.83;92.48;98576.50;5028782;28;20985;-67
2021/10/12 00:38:26;;;;;;;28.70;22.40;;;9.00;91.20;;;7.93;92.86;98582.44;5028244;28;20474;-67
2021/10/12 00:40:54;;;;;;;30.13;22.80;;;9.00;91.20;;;7.62;94.12;98569.97;5045490;28;20462;-67
2021/10/12 00:43:27;;;;;;;29.80;22.33;;;9.00;91.40;;;7.68;93.82;98562.19;5028219;28;20974;-67
2021/10/12 00:45:56;;;;;;;28.30;21.50;;;8.90;91.70;;;7.66;94.65;98562.38;5028556;28;21085;-67
2021/10/12 00:48:23;;;;;;;31.57;23.37;;;9.00;91.70;;;7.71;93.45;98561.81;5028978;28;20446;-67
2021/10/12 00:50:50;;;;;;;28.80;22.13;;;8.90;91.60;;;7.77;93.53;98555.69;5045423;28;20966;-66
2021/10/12 00:53:17;;;;;;;29.10;22.50;;;8.90;91.80;;;7.74;93.09;98551.53;5024912;28;20560;-67
2021/10/12 00:55:44;;;;;;;29.43;22.87;;;9.00;91.50;;;7.89;93.09;98554.22;5027259;28;20574;-67
2021/10/12 00:58:13;;;;;;;27.40;22.80;;;9.00;91.60;;;7.63;93.85;98539.34;5026822;28;20577;-66
2021/10/12 01:00:43;;;;;;;29.27;22.80;;;8.90;91.60;;;7.82;93.43;98539.88;5028146;28;20559;-67
2021/10/12 01:03:10;;;;;;;32.60;23.40;;;9.00;91.60;;;7.82;92.98;98541.69;5024955;28;20462;-67
2021/10/12 01:05:37;;;;;;;32.70;23.10;;;9.00;91.60;;;7.81;93.23;98540.88;5028358;28;20573;-66
2021/10/12 01:08:05;;;;;;;31.00;22.23;;;9.00;91.50;;;7.90;93.02;98534.38;5025838;28;20942;-67
2021/10/12 01:10:32;;;;;;;30.60;23.13;;;9.00;91.30;;;7.84;93.27;98539.66;5026006;28;20493;-68
2021/10/12 01:13:02;;;;;;;28.80;22.80;;;9.00;91.20;;;7.90;92.60;98533.56;5024885;28;20545;-68
2021/10/12 01:15:30;;;;;;;30.60;21.83;;;9.00;91.30;;;7.80;92.95;98533.81;5027463;28;20490;-68
2021/10/12 01:17:59;;;;;;;33.13;22.87;;;9.00;91.40;;;7.68;93.81;98530.75;5025347;28;20487;-68
2021/10/12 01:20:27;;;;;;;33.23;22.77;;;9.00;91.40;;;7.85;93.39;98533.25;5027423;28;20554;-68
2021/10/12 01:22:56;;;;;;;29.60;22.93;;;9.00;91.40;;;7.99;92.25;98526.22;5023714;28;20450;-68
2021/10/12 01:25:23;;;;;;;30.73;22.53;;;9.10;91.10;;;7.87;93.21;98524.00;5026571;28;20543;-67
2021/10/12 01:27:50;;;;;;;30.97;21.87;;;9.10;91.50;;;8.01;92.69;98525.00;5024955;28;20455;-65
2021/10/12 01:30:18;;;;;;;31.67;23.30;;;9.10;91.50;;;8.00;92.50;98514.44;5028435;28;20973;-66
2021/10/12 01:32:46;;;;;;;29.37;23.73;;;9.20;91.00;;;8.12;91.70;98521.03;5039969;28;20459;-67
2021/10/12 01:35:15;;;;;;;28.53;21.43;;;9.20;90.90;;;8.06;92.23;98521.75;5027136;28;20987;-66
2021/10/12 01:37:42;;;;;;;34.10;23.00;;;9.20;91.00;;;8.02;92.35;98520.47;5022780;28;20486;-67
2021/10/12 01:40:13;;;;;;;29.47;21.40;;;9.20;90.90;;;7.84;92.92;98510.91;5023583;28;20986;-67
2021/10/12 01:42:41;;;;;;;30.87;23.70;;;9.10;91.30;;;7.91;92.92;98511.81;5023275;28;20474;-66
2021/10/12 01:45:11;;;;;;;30.93;24.90;;;9.10;91.20;;;7.82;93.70;98504.88;5026782;28;20470;-66
2021/10/12 01:47:38;;;;;;;29.10;21.60;;;9.00;91.60;;;7.78;93.75;98501.72;5026517;28;20557;-66
2021/10/12 01:50:08;;;;;;;30.27;21.80;;;9.00;91.70;;;7.87;93.61;98498.94;5025265;28;20458;-67
2021/10/12 01:52:35;;;;;;;30.23;23.20;;;9.00;91.90;;;7.78;93.95;98498.19;5026674;28;20553;-66
2021/10/12 01:55:03;;;;;;;30.30;22.90;;;9.00;91.90;;;7.77;94.03;98496.53;5025495;28;20488;-67
2021/10/12 01:57:32;;;;;;;29.80;22.00;;;9.00;92.10;;;7.91;93.73;98493.00;5024691;28;20923;-67
2021/10/12 01:59:59;;;;;;;33.87;23.97;;;9.00;92.20;;;7.94;93.70;98486.41;5029474;28;20556;-66
2021/10/12 02:02:26;;;;;;;31.20;23.07;;;9.00;92.10;;;8.00;92.69;98490.22;5026900;28;20988;-66
2021/10/12 02:04:53;;;;;;;32.80;21.93;;;9.10;91.80;;;7.92;93.60;98486.59;5028851;28;20818;-66
2021/10/12 02:07:20;;;;;;;30.10;23.17;;;9.10;92.40;;;7.92;93.83;98488.47;5028788;28;20462;-67
2021/10/12 02:09:47;;;;;;;30.30;24.40;;;9.10;92.10;;;8.12;93.01;98488.72;5031206;28;20494;-67
2021/10/12 02:12:14;;;;;;;27.93;21.30;;;9.20;92.20;;;8.13;93.24;98476.09;5026618;28;20470;-68
2021/10/12 02:14:42;;;;;;;30.70;23.43;;;9.20;91.80;;;8.16;92.75;98476.53;5028600;28;20509;-68
2021/10/12 02:17:09;;;;;;;36.40;22.87;;;9.30;91.80;;;8.06;93.46;98473.31;5025366;28;20493;-68
2021/10/12 02:19:36;;;;;;;32.93;23.53;;;9.20;91.70;;;7.93;93.98;98466.72;5029272;28;20569;-68
2021/10/12 02:22:03;;;;;;;30.87;22.83;;;9.20;91.90;;;7.81;94.77;98460.19;5027569;28;20466;-68
2021/10/12 02:24:30;;;;;;;27.90;22.70;;;9.10;92.40;;;7.90;94.05;98464.41;5033719;28;20471;-68
2021/10/12 02:26:57;;;;;;;30.27;22.67;;;9.10;92.40;;;7.86;94.68;98462.28;5027996;28;20470;-68
2021/10/12 02:29:24;;;;;;;33.07;24.07;;;9.10;92.60;;;7.89;94.24;98462.75;5026950;28;20541;-68
2021/10/12 02:31:52;;;;;;;35.57;24.30;;;9.00;92.60;;;7.85;94.76;98460.63;5025635;28;20474;-68
2021/10/12 02:34:19;;;;;;;32.93;23.10;;;9.00;92.60;;;7.83;94.54;98452.75;5027892;28;20569;-69
2021/10/12 02:36:46;;;;;;;32.73;23.20;;;9.00;93.00;;;7.85;94.70;98448.00;5025661;28;20469;-68
2021/10/12 02:39:13;;;;;;;35.80;23.17;;;9.00;92.80;;;7.77;94.95;98456.16;5026985;28;20997;-69
2021/10/12 02:41:40;;;;;;;34.23;23.00;;;9.00;93.00;;;7.74;95.35;98445.78;5027540;28;20467;-68
2021/10/12 02:44:07;;;;;;;32.33;23.47;;;8.90;93.50;;;7.63;95.66;98437.16;5025588;28;20481;-68
2021/10/12 02:46:34;;;;;;;30.70;24.40;;;8.90;93.10;;;7.54;95.99;98437.44;5038064;28;20457;-68
2021/10/12 02:49:02;;;;;;;37.07;25.50;;;8.80;93.70;;;7.55;96.51;98439.97;5027507;28;20508;-68
2021/10/12 02:51:29;;;;;;;34.63;24.17;;;8.70;94.50;;;7.64;95.44;98438.00;5026611;28;20459;-66
2021/10/12 02:53:56;;;;;;;34.00;25.40;;;8.80;93.90;;;7.54;96.25;98432.91;5022307;28;20524;-67
2021/10/12 02:56:23;;;;;;;34.00;23.53;;;8.70;94.30;;;7.67;95.87;98434.13;5026678;28;20974;-67
2021/10/12 02:58:50;;;;;;;32.33;24.77;;;8.70;94.70;;;7.71;95.83;98425.47;5027848;28;20481;-67
2021/10/12 03:01:17;;;;;;;31.30;23.93;;;8.80;94.30;;;7.59;96.09;98427.81;5027083;28;20466;-67
2021/10/12 03:03:44;;;;;;;30.53;24.40;;;8.80;94.10;;;7.59;96.25;98430.50;5025906;28;20546;-68
2021/10/12 03:06:13;;;;;;;37.50;25.63;;;8.80;94.40;;;7.67;96.31;98418.00;5028768;28;20889;-67
2021/10/12 03:08:40;;;;;;;33.10;24.30;;;8.80;94.30;;;7.45;96.24;98391.84;5025738;28;20516;-67
2021/10/12 03:11:07;;;;;;;36.00;24.50;;;8.80;94.10;;;7.60;96.06;98421.41;5027156;28;20450;-67
2021/10/12 03:13:34;;;;;;;35.47;24.90;;;8.90;93.80;;;7.80;95.67;98420.81;5025918;28;20455;-67
2021/10/12 03:16:01;;;;;;;32.57;23.63;;;8.90;94.00;;;7.85;94.90;98410.34;5024887;28;20841;-66
2021/10/12 03:18:30;;;;;;;37.13;25.33;;;9.00;93.20;;;7.97;94.78;98409.88;5022923;28;20486;-66
2021/10/12 03:20:57;;;;;;;35.33;23.93;;;9.10;93.10;;;7.96;94.31;98408.19;5028620;28;20904;-67
2021/10/12 03:23:27;;;;;;;28.70;21.57;;;9.10;92.50;;;7.87;94.04;98394.84;5025438;28;20494;-67
2021/10/12 03:25:54;;;;;;;30.67;24.07;;;9.10;92.50;;;7.98;93.73;98395.41;5022755;28;20591;-68
2021/10/12 03:28:21;;;;;;;31.57;25.20;;;9.10;92.40;;;7.96;93.91;98392.03;5025422;28;20458;-68
2021/10/12 03:30:48;;;;;;;33.37;26.00;;;9.10;92.30;;;7.69;94.20;98371.03;5028432;28;20817;-67
2021/10/12 03:33:15;;;;;;;35.83;24.03;;;9.10;92.00;;;7.86;93.70;98403.94;5024943;28;20476;-67
2021/10/12 03:35:46;;;;;;;36.00;25.03;;;9.10;92.20;;;7.79;94.76;98397.63;5027952;28;20502;-67
2021/10/12 03:38:13;;;;;;;30.97;23.53;;;9.00;92.50;;;7.86;94.28;98395.88;5025759;28;20683;-67
2021/10/12 03:40:42;;;;;;;34.40;25.67;;;9.00;92.40;;;7.77;94.65;98389.78;5026791;28;20456;-68
2021/10/12 03:43:08;;;;;;;33.67;24.90;;;9.10;92.40;;;7.76;95.13;98387.25;5023664;28;20589;-67
2021/10/12 03:45:35;;;;;;;31.97;25.37;;;9.00;93.00;;;7.87;94.42;98389.47;5024931;28;20485;-68
2021/10/12 03:48:03;;;;;;;35.33;23.50;;;9.00;92.60;;;7.86;94.62;98392.34;5024796;28;20505;-68
2021/10/12 03:50:30;;;;;;;37.57;25.70;;;9.10;92.60;;;7.90;94.24;98378.31;5028229;28;20943;-67
2021/10/12 03:52:57;;;;;;;37.20;23.93;;;9.10;92.40;;;7.86;94.38;98379.72;5027237;28;20600;-67
2021/10/12 03:55:24;;;;;;;38.27;25.93;;;9.10;92.40;;;7.74;94.45;98357.03;5034359;28;20473;-67
2021/10/12 03:57:52;;;;;;;33.00;23.70;;;9.10;92.40;;;7.94;93.60;98390.38;5025179;28;20470;-67
2021/10/12 04:00:19;;;;;;;34.27;24.87;;;9.10;92.10;;;7.87;93.88;98376.03;5026559;28;20580;-67
2021/10/12 04:02:46;;;;;;;29.67;24.77;;;9.10;92.10;;;8.16;93.30;98379.66;5028215;28;20846;-66
2021/10/12 04:05:13;;;;;;;32.87;23.73;;;9.20;91.90;;;7.97;93.38;98382.97;5026800;28;20490;-67
2021/10/12 04:07:40;;;;;;;27.73;23.47;;;9.20;91.60;;;7.95;94.04;98377.75;5025257;28;20472;-67
2021/10/12 04:10:09;;;;;;;30.87;25.00;;;9.20;91.90;;;8.06;93.29;98365.66;5026771;28;20465;-67
2021/10/12 04:12:36;;;;;;;32.57;22.60;;;9.20;91.70;;;7.89;94.85;98376.66;5025544;28;20466;-67
2021/10/12 04:15:06;;;;;;;34.33;24.50;;;9.10;92.30;;;7.85;94.27;98364.63;5026797;28;20482;-67
2021/10/12 04:17:33;;;;;;;40.10;24.60;;;9.10;92.00;;;7.92;93.40;98376.28;5025722;28;20450;-66
2021/10/12 04:19:59;;;;;;;33.37;25.60;;;9.10;91.70;;;7.81;94.45;98371.41;5026513;28;21016;-67
2021/10/12 04:22:26;;;;;;;38.03;25.00;;;9.00;92.20;;;7.76;94.78;98365.75;5028949;28;20552;-67
2021/10/12 04:24:53;;;;;;;41.77;24.23;;;9.00;92.20;;;7.63;95.38;98367.25;5025005;28;21101;-67
2021/10/12 04:27:20;;;;;;;37.33;23.70;;;9.00;92.70;;;7.86;94.43;98363.59;5021186;28;20546;-67
2021/10/12 04:29:47;;;;;;;37.17;24.50;;;9.00;92.60;;;7.71;94.94;98366.28;5026388;28;20537;-67
2021/10/12 04:32:15;;;;;;;33.23;25.07;;;9.00;92.60;;;7.81;94.95;98357.97;5025426;28;20462;-67
2021/10/12 04:34:42;;;;;;;36.67;25.33;;;9.00;92.90;;;7.77;94.75;98356.66;5021139;28;20477;-67
2021/10/12 04:37:09;;;;;;;34.37;24.80;;;9.00;92.80;;;7.63;95.17;98361.03;5023265;28;20455;-67
2021/10/12 04:39:36;;;;;;;40.80;27.17;;;8.90;92.70;;;7.54;95.82;98357.63;5020928;28;20535;-66
2021/10/12 04:42:05;;;;;;;33.67;24.40;;;8.90;93.30;;;7.78;95.25;98361.00;5029134;28;20472;-67
2021/10/12 04:44:33;;;;;;;39.30;25.90;;;8.90;93.20;;;7.74;95.07;98357.03;5028065;28;20532;-67
2021/10/12 04:47:00;;;;;;;36.63;25.33;;;8.90;93.00;;;7.58;95.44;98353.53;5030294;28;20473;-68
2021/10/12 04:49:28;;;;;;;34.93;25.43;;;8.90;92.80;;;7.51;96.13;98358.00;5027782;28;20462;-68
2021/10/12 04:51:55;;;;;;;35.57;25.50;;;8.80;93.10;;;7.57;95.20;98357.25;5028473;28;21025;-67
2021/10/12 04:54:22;;;;;;;41.73;25.93;;;8.90;93.10;;;7.55;96.22;98353.06;5022232;28;21029;-68
2021/10/12 04:56:49;;;;;;;38.63;27.17;;;8.80;93.30;;;7.60;95.69;98345.28;5027933;28;20464;-68
2021/10/12 04:59:16;;;;;;;38.13;25.77;;;8.80;93.30;;;7.75;94.71;98347.94;5024782;28;20488;-67
2021/10/12 05:01:43;;;;;;;38.30;24.27;;;9.00;92.70;;;7.75;95.50;98331.78;5029179;28;20541;-66
2021/10/12 05:04:10;;;;;;;38.73;25.93;;;9.00;93.70;;;7.61;94.80;98337.00;5028190;28;20559;-67
2021/10/12 05:06:38;;;;;;;39.20;27.77;;;8.90;92.50;;;7.89;95.23;98332.78;5027927;28;20490;-66
2021/10/12 05:09:05;;;;;;;34.53;24.90;;;9.00;93.40;;;7.96;93.02;98332.84;5024907;28;20481;-67
2021/10/12 05:11:33;;;;;;;30.57;25.63;;;9.20;91.80;;;7.85;93.66;98332.34;5023311;28;20454;-67
2021/10/12 05:14:00;;;;;;;36.70;26.57;;;9.10;91.90;;;8.06;93.76;98333.38;5023768;28;20557;-67
2021/10/12 05:16:29;;;;;;;36.57;24.63;;;9.20;92.60;;;7.93;93.66;98334.88;5020759;28;20454;-71
2021/10/12 05:19:00;;;;;;;34.67;25.40;;;9.10;91.90;;;8.22;91.70;98330.41;5030487;28;20546;-72
2021/10/12 05:21:28;;;;;;;35.80;25.87;;;9.30;91.20;;;8.20;91.38;98329.78;5024491;28;20457;-71
2021/10/12 05:23:57;;;;;;;31.93;24.90;;;9.40;90.40;;;8.33;91.67;98317.47;5022020;28;20481;-73
2021/10/12 05:26:25;;;;;;;37.33;25.27;;;9.50;90.80;;;8.56;92.00;98327.22;5020734;28;20528;-71
2021/10/12 05:28:53;;;;;;;35.67;24.00;;;9.60;91.20;;;8.74;91.02;98329.44;5033147;28;20545;-72
2021/10/12 05:31:20;;;;;;;33.30;23.50;;;9.80;91.10;;;8.75;90.53;98325.72;5022809;28;20462;-72
2021/10/12 05:33:49;;;;;;;34.93;24.70;;;9.90;89.70;;;8.36;91.76;98320.63;5025101;28;20974;-73
2021/10/12 05:36:16;;;;;;;38.70;24.20;;;9.60;89.80;;;8.16;92.67;98333.03;5023219;28;20478;-72
2021/10/12 05:38:45;;;;;;;32.10;23.73;;;9.40;90.70;;;8.23;93.34;98324.00;5028391;28;21174;-73
2021/10/12 05:41:14;;;;;;;33.90;24.80;;;9.40;92.00;;;8.16;93.28;98324.97;5022485;28;20473;-72
2021/10/12 05:43:41;;;;;;;31.73;23.53;;;9.40;91.80;;;8.21;94.13;98323.38;5024308;28;20845;-72
2021/10/12 05:46:08;;;;;;;37.10;25.57;;;9.40;92.10;;;8.07;94.44;98329.66;5022533;28;20478;-84
2021/10/12 05:48:35;;;;;;;33.77;24.70;;;9.30;92.40;;;7.98;94.75;98322.75;5018357;28;20486;-73
2021/10/12 05:51:02;;;;;;;36.60;26.83;;;9.20;92.60;;;8.04;95.54;98335.41;5021704;28;20529;-72
2021/10/12 05:53:31;;;;;;;34.63;25.17;;;9.20;93.50;;;8.17;95.48;98327.47;5018402;28;20451;-75
2021/10/12 05:56:04;;;;;;;37.87;26.47;;;9.30;94.10;;;7.99;95.36;98332.47;5022038;28;20490;-72
2021/10/12 05:58:35;;;;;;;35.77;25.30;;;9.30;93.10;;;8.19;95.98;98327.31;5026246;28;20565;-75
2021/10/12 06:01:05;;;;;;;42.83;27.03;;;9.30;94.20;;;8.19;94.84;98335.38;5025016;28;21361;-74
2021/10/12 06:03:32;;;;;;;33.77;24.93;;;9.40;93.20;;;8.09;95.68;98332.97;5025524;28;20458;-76
2021/10/12 06:06:00;;;;;;;36.20;25.97;;;9.30;93.60;;;8.03;95.62;98328.38;5018819;28;20492;-75
2021/10/12 06:08:30;;;;;;;41.20;27.23;;;9.30;93.30;;;8.09;96.50;98327.59;5024611;28;20463;-76
2021/10/12 06:10:57;;;;;;;42.73;29.40;;;9.30;94.30;;;8.07;95.83;98326.97;5020893;28;20468;-75
2021/10/12 06:13:24;;;;;;;34.30;25.03;;;9.30;93.90;;;8.07;95.65;98329.66;5024566;28;20546;-74
2021/10/12 06:15:52;;;;;;;36.20;25.17;;;9.30;93.90;;;8.07;95.44;98330.50;5021191;28;20592;-74
2021/10/12 06:18:20;;;;;;;39.20;26.43;;;9.30;93.60;;;8.08;95.16;98329.47;5023675;28;20459;-75
2021/10/12 06:20:47;;;;;;;35.10;24.20;;;9.30;93.20;;;7.93;95.80;98328.69;5022587;28;20471;-75
2021/10/12 06:23:15;;;;;;;36.93;24.30;;;9.20;93.20;;;7.88;96.57;98326.56;5026975;28;20472;-73
2021/10/12 06:25:44;;;;;;;40.80;26.70;;;9.20;93.90;;;7.98;96.45;98328.13;5021339;28;20528;-74
2021/10/12 06:28:13;;;;;;;36.13;25.73;;;9.20;94.30;;;8.08;96.92;98334.00;5018837;28;20460;-75
2021/10/12 06:30:41;;;;;;;35.27;25.87;;;9.30;94.40;;;8.15;96.20;98328.69;5026751;28;20450;-74
2021/10/12 06:33:09;;;;;;;34.13;25.47;;;9.30;94.50;;;8.23;95.72;98332.09;5021068;28;20466;-75
2021/10/12 06:35:37;;;;;;;33.00;24.40;;;9.40;93.60;;;8.28;95.92;98336.06;5020812;28;20478;-76
2021/10/12 06:38:06;;;;;;;31.70;23.30;;;9.50;93.90;;;8.11;95.33;98333.63;5016962;28;21013;-74
2021/10/12 06:40:36;;;;;;;31.80;23.97;;;9.40;92.70;;;7.99;95.69;98344.06;5020365;28;20474;-76
2021/10/12 06:43:03;;;;;;;36.50;24.33;;;9.30;93.10;;;7.97;96.90;98337.22;5020576;28;20480;-76
2021/10/12 06:45:31;;;;;;;30.97;21.70;;;9.20;94.60;;;7.89;96.39;98339.00;5022820;28;20488;-75
2021/10/12 06:47:58;;;;;;;35.67;23.43;;;9.20;93.60;;;7.68;97.11;98331.72;5020946;28;20554;-75
2021/10/12 06:50:27;;;;;;;33.37;22.57;;;9.10;94.10;;;7.82;96.44;98346.16;5023213;28;20490;-74
2021/10/12 06:52:54;;;;;;;29.30;18.40;;;9.10;94.00;;;7.88;96.24;98344.56;5022583;28;20885;-75
2021/10/12 06:55:22;;;;;;;29.20;19.57;;;9.10;93.90;;;7.88;95.93;98331.94;5020024;28;20462;-75
2021/10/12 06:57:49;;;;;;;28.90;18.83;;;9.20;93.60;;;8.01;95.39;98339.31;5023418;28;20528;-72
2021/10/12 07:00:18;;;;;;;24.80;16.67;;;9.20;93.20;;;7.91;95.36;98336.13;5024970;28;20478;-79
2021/10/12 07:02:47;;;;;;;23.13;17.13;;;9.20;92.80;;;8.16;95.18;98324.97;5022715;28;20498;-78
2021/10/12 07:05:16;;;;;;;22.13;17.23;;;9.30;93.60;;;8.23;93.23;98331.28;5019678;28;20787;-79
2021/10/12 07:07:45;;;;;;;23.97;16.20;;;9.40;91.60;;;8.31;93.58;98319.53;5031640;28;20513;-79
2021/10/12 07:10:14;;;;;;;16.87;14.97;;;9.50;91.90;;;8.28;93.13;98301.91;5022472;28;20451;-79
2021/10/12 07:12:42;;;;;;;16.63;13.80;;;9.60;91.20;;;8.37;93.39;98318.75;5025082;28;20999;-78
2021/10/12 07:15:10;;;;;;;16.97;13.57;;;9.60;91.10;;;8.46;91.79;98317.59;5019644;28;20496;-78
2021/10/12 07:17:39;;;;;;;16.73;11.63;;;9.60;90.60;;;8.43;92.02;98323.38;5022518;28;20999;-79
2021/10/12 07:20:08;;;;;;;15.47;12.37;;;9.70;90.60;;;8.41;90.59;98321.91;5020140;28;20479;-79
2021/10/12 07:22:35;;;;;;;14.83;12.53;;;9.70;88.30;;;8.08;91.70;98299.03;5026547;28;21014;-77
2021/10/12 07:25:06;;;;;;;16.90;13.20;;;9.50;89.90;;;8.21;92.70;98326.06;5022270;28;20604;-79
2021/10/12 07:27:35;;;;;;;15.30;12.23;;;9.40;90.70;;;8.25;93.04;98331.06;5022176;28;20504;-79
2021/10/12 07:30:02;;;;;;;17.87;12.43;;;9.50;90.90;;;8.21;91.01;98328.75;5025568;28;20508;-79
2021/10/12 07:32:29;;;;;;;19.23;13.03;;;9.50;89.30;;;8.23;91.69;98329.41;5023610;28;21043;-79
2021/10/12 07:34:56;;;;;;;19.97;14.23;;;9.50;90.20;;;8.31;92.18;98325.72;5026169;28;20965;-79
2021/10/12 07:37:23;;;;;;;17.17;14.53;;;9.60;90.60;;;8.32;91.70;98321.19;5020407;28;20936;-78
2021/10/12 07:39:50;;;;;;;20.07;14.53;;;9.50;89.90;;;8.36;91.83;98317.09;5025742;28;20483;-77
2021/10/12 07:42:18;;;;;;;17.20;13.63;;;9.60;90.10;;;8.38;90.93;98304.25;5020525;28;20985;-78
2021/10/12 07:44:45;;;;;;;15.73;13.00;;;9.60;89.20;;;8.47;91.45;98319.25;5022234;28;20516;-78
2021/10/12 07:47:13;;;;;;;19.70;14.63;;;9.70;90.20;;;8.43;91.23;98311.75;5022653;28;20481;-78
2021/10/12 07:49:40;;;;;;;18.27;14.40;;;9.70;89.00;;;8.46;91.46;98306.81;5021622;28;20516;-79
2021/10/12 07:52:07;;;;;;;18.40;16.33;;;9.70;89.50;;;8.70;91.52;98296.66;5021485;28;20453;-77
2021/10/12 07:54:43;;;;;;;17.43;14.17;;;9.80;90.30;;;8.93;90.33;98300.97;5020115;28;20212;-78
2021/10/12 07:57:10;;;;;;;21.33;14.77;;;10.10;88.40;;;8.93;89.13;98291.00;5020258;28;20473;-72
2021/10/12 07:59:38;;;;;;;15.57;13.90;;;10.10;86.30;;;8.91;88.24;98292.25;5023134;28;20463;-70
2021/10/12 08:02:06;;;;;;;18.20;13.60;;;10.20;85.50;;;8.83;88.99;98295.94;5035629;28;20544;-76
2021/10/12 08:04:33;;;;;;;15.53;13.13;;;10.10;85.50;;;8.96;89.97;98289.78;5022897;28;20907;-76
2021/10/12 08:07:00;;;;;;;18.13;13.77;;;10.10;87.30;;;9.03;89.16;98289.81;5019821;28;21096;-75
2021/10/12 08:09:27;;;;;;;19.50;14.50;;;10.20;86.40;;;9.35;89.05;98299.13;5025233;28;20559;-75
2021/10/12 08:11:54;;;;;;;19.33;14.47;;;10.40;87.00;;;9.30;86.43;98296.19;5022127;28;20549;-76
2021/10/12 08:14:22;;;;;;;13.93;12.30;;;10.50;83.10;;;9.52;86.18;98303.31;5019170;28;20601;-76
2021/10/12 08:16:50;;;;;;;14.37;11.30;;;10.70;83.70;;;9.41;85.13;98297.50;5026196;28;20462;-77
2021/10/12 08:19:17;;;;;;;15.33;12.20;;;10.60;81.20;;;9.42;85.73;98282.13;5037016;28;20542;-76
2021/10/12 08:21:44;;;;;;;11.97;9.90;;;10.70;82.30;;;9.30;84.06;98293.47;5029891;28;21117;-77
2021/10/12 08:24:12;;;;;;;10.93;9.60;;;10.60;80.50;;;9.02;85.53;98294.41;5023968;28;20665;-75
2021/10/12 08:26:42;;;;;;;11.43;10.33;;;10.40;80.70;;;8.90;87.33;98290.59;5027961;28;20450;-76
2021/10/12 08:29:10;;;;;;;13.70;9.47;;;10.10;82.30;;;9.01;85.05;98291.88;5026072;28;20933;-76
2021/10/12 08:31:36;;;;;;;9.80;8.80;;;10.10;81.40;;;9.45;84.00;98287.09;5019344;28;20543;-76
2021/10/12 08:34:05;;;;;;;13.23;7.90;;;10.50;80.90;;;9.56;81.96;98283.03;5025573;28;20545;-75
2021/10/12 08:36:32;;;;;;;10.00;8.50;;;10.70;78.70;;;9.59;82.06;98271.81;5015374;28;20477;-75
2021/10/12 08:38:59;;;;;;;10.13;9.13;;;10.80;78.90;;;9.70;83.37;98270.41;5022155;28;20937;-76
2021/10/12 08:41:30;;;;;;;16.10;10.17;;;10.80;79.30;;;9.76;82.42;98272.25;5027750;28;20479;-75
2021/10/12 08:43:58;;;;;;;12.10;8.87;;;11.00;79.10;;;9.94;81.94;98268.16;5026013;28;20545;-77
2021/10/12 08:46:27;;;;;;;11.57;8.97;;;11.20;78.50;;;10.25;79.75;98264.88;5025605;28;20568;-74
2021/10/12 08:48:56;;;;;;;10.00;6.53;;;11.40;76.80;;;10.41;76.86;98258.25;5025703;28;20466;-76
2021/10/12 08:51:26;;;;;;;7.33;6.60;;;11.60;74.20;;;10.55;76.57;98259.06;5026213;28;21095;-75
2021/10/12 08:53:53;;;;;;;8.83;7.07;;;11.70;73.70;;;10.54;76.97;98235.78;5025874;28;20963;-75
2021/10/12 08:56:21;;;;;;;6.97;5.70;;;11.80;74.10;;;10.69;76.36;98257.19;5020356;28;20541;-76
2021/10/12 08:58:47;;;;;;;6.13;5.53;;;11.90;72.80;;;10.06;77.41;98261.09;5026883;28;21168;-76
2021/10/12 09:01:17;;;;;;;8.10;7.33;;;11.40;72.30;;;9.95;78.01;98259.03;5025922;28;20994;-77
2021/10/12 09:03:49;;;;;;;8.37;5.70;;;11.20;72.80;;;10.20;78.42;98251.16;5029405;28;20939;-76
2021/10/12 09:06:29;;;;;;;8.37;5.63;;;11.40;74.30;;;10.64;76.97;98256.97;5034211;28;20440;-76
2021/10/12 09:08:58;;;;;;;8.33;6.30;;;11.60;74.00;;;10.62;77.71;98243.69;5025176;28;20451;-76
2021/10/12 09:11:29;;;;;;;5.83;5.30;;;11.70;73.50;;;10.60;75.02;98237.66;5027031;28;20944;-76
2021/10/12 09:14:05;;;;;;;6.20;5.47;;;11.80;71.70;;;10.63;74.32;98239.94;5027870;28;20483;-76
2021/10/12 09:16:37;;;;;;;9.20;5.87;;;11.90;70.50;;;10.86;75.75;98241.34;5021119;28;20962;-75
2021/10/12 09:19:06;;;;;;;5.70;4.70;;;12.00;71.70;;;11.13;72.69;98229.59;5028992;28;20437;-76
2021/10/12 09:21:38;;;;;;;5.40;4.90;;;12.30;69.70;;;11.79;69.62;98224.91;5026360;28;20482;-76
2021/10/12 09:24:09;;;;;;;5.80;4.70;;;12.70;68.10;;;11.60;70.05;98216.72;5023357;28;20454;-76
2021/10/12 09:26:39;;;;;;;5.37;4.87;;;12.70;67.30;;;11.58;69.91;98218.78;5021340;28;20465;-77
2021/10/12 09:29:11;;;;;;;4.40;4.00;;;12.80;66.80;;;11.88;69.52;98218.19;5022849;28;20545;-78
2021/10/12 09:31:41;;;;;;;4.37;3.87;;;13.00;66.50;;;11.73;69.12;98204.97;5021742;28;20458;-76
2021/10/12 09:34:10;;;;;;;7.00;4.50;;;12.90;65.90;;;11.52;68.92;98203.44;5025002;28;20459;-77
2021/10/12 09:36:41;;;;;;;4.53;4.07;;;12.80;65.40;;;11.32;69.33;98207.06;5023923;28;20834;-76
2021/10/12 09:39:14;;;;;;;4.10;3.70;;;12.60;65.40;;;11.62;69.69;98203.78;5013782;28;20545;-76
2021/10/12 09:41:42;;;;;;;4.60;4.10;;;12.70;65.90;;;11.66;70.51;98201.47;5022804;28;20489;-76
2021/10/12 09:44:15;;;;;;;4.20;3.87;;;12.80;66.10;;;11.70;67.89;98193.75;5019968;28;20562;-77
2021/10/12 09:46:46;;;;;;;5.30;3.97;;;12.90;64.40;;;11.46;68.63;98193.47;5020837;28;20463;-77
2021/10/12 09:49:24;;;;;;;4.57;4.10;;;12.70;64.90;;;11.20;68.83;98185.25;5021993;28;20455;-76
2021/10/12 09:52:04;;;;;;;3.90;3.50;;;12.40;64.30;;;11.39;68.80;98185.41;5020074;28;20537;-79
2021/10/12 09:54:33;;;;;;;5.40;4.90;;;12.50;64.80;;;11.55;69.07;98186.75;5023116;28;21065;-77
2021/10/12 09:57:03;;;;;;;5.33;4.30;;;12.60;65.10;;;11.69;67.40;98171.28;5022676;28;21021;-81
2021/10/12 09:59:33;;;;;;;5.33;3.90;;;12.80;64.40;;;11.59;67.70;98177.16;5021311;28;20553;-79
2021/10/12 10:02:02;;;;;;;3.50;3.20;;;12.80;63.80;;;11.48;67.67;98164.34;5036333;28;20478;-79
2021/10/12 10:04:31;;;;;;;6.23;3.17;;;12.70;63.50;;;11.59;67.45;98166.31;5031496;28;20510;-79
2021/10/12 10:07:07;;;;;;;3.33;3.10;;;12.70;63.60;;;11.62;67.97;98174.03;5022262;28;20462;-78
2021/10/12 10:09:36;;;;;;;4.03;3.30;;;12.80;64.10;;;11.62;67.33;98165.06;5021778;28;20458;-78
2021/10/12 10:12:06;;;;;;;3.17;2.87;;;12.80;63.30;;;11.45;66.25;98173.69;5019494;28;20472;-79
2021/10/12 10:14:35;;;;;;;2.60;2.10;;;12.70;62.20;;;11.10;66.65;98173.25;5020940;28;20466;-81
2021/10/12 10:17:02;;;;;;;3.60;2.87;;;12.40;62.30;;;11.21;66.91;98159.06;5018461;28;20555;-78
2021/10/12 10:19:34;;;;;;;3.90;2.93;;;12.40;62.50;;;11.00;68.54;98163.75;5020698;28;20524;-79
2021/10/12 10:22:02;;;;;;;15.90;14.30;;;12.20;63.00;;;11.16;69.35;98162.41;5021894;28;20496;-78